Sado, Japan

7:14 AM JST on September 05, 2015 (GMT +0900)
Niigata | | Change Station
CLOSE
Current Station
Airport
Location: Niigata Airport,
Elevation: 13 ft
Nearby Weather Stations

Elev 13 ft 37.96 °N, 139.11 °E | Updated 14 minutes ago

Mostly Cloudy
Mostly Cloudy
70 °F
Feels Like 70 °F
N
7
Wind Variable Wind from South

Today
High -- | Low -- °F
--% Chance of Precip.
Yesterday
High -- | Low -- °F
Precip. -- in
5:18 AM 6:11 PM
Waning Gibbous, 55% visible
Pressure 29.89 in
Visibility 6.2 miles
Clouds Few 1500 ft
Mostly Cloudy 2500 ft
Dew Point 64 °F
Humidity 83%
Rainfall 0.00 in
Snow Depth Not available.
UV 1 out of 12
Pollen Not available.
Air Quality Not available.
Flu Activity Not available.
METAR RJSN 042200Z 17006KT 9999 FEW015 BKN025 21/18 Q1012
Pressure 29.89 in
Visibility 6.2 miles
Clouds Few 1500 ft
Mostly Cloudy 2500 ft
Dew Point 64 °F
Humidity 83%
Rainfall 0.00 in
Snow Depth Not available.
UV 1 out of 12
Pollen Not available.
Air Quality Not available.
Flu Activity Not available.
METAR RJSN 042200Z 17006KT 9999 FEW015 BKN025 21/18 Q1012

10-Day Weather Forecast

×

Almanac

Astronomy

Sep. 05, 2015 Rise Set
Actual Time
Civil Twilight
Nautical Twilight
Astronomical Twilight
Moon
Length of Visible Light
Length of Day
Tomorrow will be .
, % of the Moon is Illuminated

Today's Extremes

Country Highs Country Lows

Community

WunderPhotos

Upload Photos

1,852,307 photos uploaded!

WunderBlogs® & News

Nearby

Air Quality

  Air Quality AQ Index Pollutant
Not available.

Snow Depth

Station Depth Elevation

Earthquake Activity

City Distance Mag. Time & Date
Minimum magnitude displayed is 2.5.

Coastal Water Temperatures

Place Temperature

Stations

Nearby Weather Stations

Station Location Temp. Windchill Dew Point Humidity Wind Precip. Elev Updated Type